Terminal Aerodrome Forecast
Issued by NWS Blacksburg, VA

Current Version | Previous Version | Graphics & Text | Print | Product List | Glossary On
Versions: 1 2 3 4 5 6 7 8 9 10 11 12 13 14 15 16 17 18 19 20 21 22 23 24 25 26 27 28 29 30
377
FTUS41 KRNK 221120
TAFBLF
TAF
KBLF 221120Z 2212/2312 33010G20KT P6SM BKN025
     FM221500 33013G23KT P6SM SCT035
     FM230200 03004KT P6SM SCT250=

USA.gov is the U.S. government's official web portal to all federal, state and local government web resources and services.